createdAt,value
2019-01-19T00:01:22.717Z,-0.97
2019-01-19T00:04:39.073Z,-0.99
2019-01-19T00:07:47.829Z,-1.07
2019-01-19T00:11:01.426Z,-1.02
2019-01-19T00:13:54.146Z,-1.03
2019-01-19T00:17:00.905Z,-1.13
2019-01-19T00:20:13.027Z,-1.12
2019-01-19T00:23:21.492Z,-1.14
2019-01-19T00:26:18.436Z,-1.15
2019-01-19T00:29:22.161Z,-1.23
2019-01-19T00:32:24.784Z,-1.27
2019-01-19T00:35:18.216Z,-1.25
2019-01-19T00:38:02.256Z,-1.26
2019-01-19T00:41:27.650Z,-1.20
2019-01-19T00:44:30.149Z,-1.23
2019-01-19T00:47:43.503Z,-1.23
2019-01-19T00:50:36.916Z,-1.12
2019-01-19T00:53:38.300Z,-1.27
2019-01-19T00:56:48.112Z,-1.23
2019-01-19T00:59:30.446Z,-1.33
2019-01-19T01:02:16.637Z,-1.34
2019-01-19T01:05:14.770Z,-1.36
2019-01-19T01:08:11.538Z,-1.32
2019-01-19T01:11:11.307Z,-1.37
2019-01-19T01:14:30.581Z,-1.43
2019-01-19T01:17:27.897Z,-1.53
2019-01-19T01:20:26.771Z,-1.59
2019-01-19T01:23:05.328Z,-1.46
2019-01-19T01:26:30.799Z,-1.47
2019-01-19T01:29:24.610Z,-1.53
2019-01-19T01:32:20.534Z,-1.53
2019-01-19T01:35:33.087Z,-1.61
2019-01-19T01:38:21.277Z,-1.64
2019-01-19T01:41:39.708Z,-1.68
2019-01-19T01:44:31.268Z,-1.81
2019-01-19T01:47:36.488Z,-1.76
2019-01-19T01:50:20.463Z,-1.77
2019-01-19T01:53:22.551Z,-1.82
2019-01-19T01:55:56.117Z,-1.85
2019-01-19T01:59:04.416Z,-1.92
2019-01-19T02:01:59.079Z,-1.92
2019-01-19T02:05:05.362Z,-1.96
2019-01-19T02:08:30.428Z,-1.95
2019-01-19T02:11:31.571Z,-1.95
2019-01-19T02:14:47.869Z,-1.99
2019-01-19T02:17:39.987Z,-1.96
2019-01-19T02:20:37.774Z,-2.03
2019-01-19T02:23:45.066Z,-2.04
2019-01-19T02:26:47.270Z,-2.01
2019-01-19T02:29:49.075Z,-2.05
2019-01-19T02:33:11.534Z,-2.09
2019-01-19T02:36:32.868Z,-2.07
2019-01-19T02:39:21.849Z,-2.10
2019-01-19T02:42:17.178Z,-2.19
2019-01-19T02:45:04.159Z,-2.17
2019-01-19T02:48:03.066Z,-2.25
2019-01-19T02:51:19.168Z,-2.24
2019-01-19T02:54:23.316Z,-2.25
2019-01-19T02:57:30.779Z,-2.32
2019-01-19T03:00:33.763Z,-2.34
2019-01-19T03:03:35.345Z,-2.38
2019-01-19T03:06:54.526Z,-2.28
2019-01-19T03:10:06.221Z,-2.39
2019-01-19T03:13:01.224Z,-2.41
2019-01-19T03:16:01.613Z,-2.43
2019-01-19T03:18:51.594Z,-2.54
2019-01-19T03:22:01.985Z,-2.44
2019-01-19T03:25:13.977Z,-2.59
2019-01-19T03:28:09.907Z,-2.49
2019-01-19T03:31:19.305Z,-2.45
2019-01-19T03:34:26.857Z,-2.60
2019-01-19T03:37:19.670Z,-2.58
2019-01-19T03:40:23.421Z,-2.53
2019-01-19T03:43:17.487Z,-2.34
2019-01-19T03:46:17.654Z,-2.40
2019-01-19T03:49:30.508Z,-2.48
2019-01-19T03:52:27.254Z,-2.40
2019-01-19T03:55:26.441Z,-2.58
2019-01-19T03:58:39.952Z,-2.54
2019-01-19T04:01:30.675Z,-2.59
2019-01-19T04:05:02.115Z,-2.65
2019-01-19T04:07:54.899Z,-2.67
2019-01-19T04:10:46.833Z,-2.71
2019-01-19T04:13:52.748Z,-2.71
2019-01-19T04:17:02.925Z,-2.73
2019-01-19T04:20:08.610Z,-2.67
2019-01-19T04:23:00.346Z,-2.62
2019-01-19T04:25:45.963Z,-2.68
2019-01-19T04:28:17.619Z,-2.59
2019-01-19T04:30:46.707Z,-2.57
2019-01-19T04:33:15.812Z,-2.67
2019-01-19T04:35:44.894Z,-2.70
2019-01-19T04:38:13.977Z,-2.74
2019-01-19T04:40:43.054Z,-2.76
2019-01-19T04:43:12.132Z,-2.77
2019-01-19T04:45:41.202Z,-2.87
2019-01-19T04:48:10.274Z,-2.93
2019-01-19T04:50:39.325Z,-2.95
2019-01-19T04:53:08.594Z,-2.95
2019-01-19T04:55:37.646Z,-2.95
2019-01-19T04:58:06.900Z,-2.95
2019-01-19T05:00:36.038Z,-2.93
2019-01-19T05:03:05.459Z,-2.94
2019-01-19T05:05:34.619Z,-3.00
2019-01-19T05:08:03.726Z,-2.99
2019-01-19T05:10:32.859Z,-3.01
2019-01-19T05:13:02.020Z,-2.98
2019-01-19T05:15:31.082Z,-3.01
2019-01-19T05:18:00.554Z,-3.12
2019-01-19T05:20:29.602Z,-3.12
2019-01-19T05:22:58.713Z,-3.10
2019-01-19T05:25:27.783Z,-3.16
2019-01-19T05:27:56.948Z,-3.05
2019-01-19T05:30:26.071Z,-2.97
2019-01-19T05:32:55.136Z,-3.09
2019-01-19T05:35:24.260Z,-3.06
2019-01-19T05:37:53.353Z,-3.05
2019-01-19T05:40:22.498Z,-3.05
2019-01-19T05:42:51.585Z,-3.12
2019-01-19T05:45:20.686Z,-3.05
2019-01-19T05:47:49.739Z,-3.03
2019-01-19T05:50:23.156Z,-3.13
2019-01-19T05:52:52.215Z,-3.20
2019-01-19T05:55:21.325Z,-3.05
2019-01-19T05:57:50.389Z,-3.04
2019-01-19T06:00:23.148Z,-2.97
2019-01-19T06:02:51.354Z,-2.88
2019-01-19T06:05:20.437Z,-2.97
2019-01-19T06:07:49.489Z,-2.95
2019-01-19T06:10:18.688Z,-3.00
2019-01-19T06:12:47.751Z,-3.05
2019-01-19T06:15:17.033Z,-3.26
2019-01-19T06:17:46.112Z,-3.21
2019-01-19T06:20:15.916Z,-3.29
2019-01-19T06:22:44.999Z,-3.22
2019-01-19T06:25:15.089Z,-3.17
2019-01-19T06:27:44.171Z,-3.29
2019-01-19T06:30:19.547Z,-3.15
2019-01-19T06:32:48.640Z,-3.27
2019-01-19T06:35:18.845Z,-3.15
2019-01-19T06:37:48.079Z,-3.08
2019-01-19T06:40:18.659Z,-3.07
2019-01-19T06:42:47.794Z,-3.09
2019-01-19T06:45:22.518Z,-3.28
2019-01-19T06:47:51.588Z,-3.17
2019-01-19T06:50:20.769Z,-3.15
2019-01-19T06:52:49.965Z,-3.17
2019-01-19T06:55:22.084Z,-3.03
2019-01-19T06:57:51.227Z,-3.06
2019-01-19T07:00:20.430Z,-3.03
2019-01-19T07:02:49.657Z,-2.86
2019-01-19T07:05:18.755Z,-2.99
2019-01-19T07:07:47.871Z,-2.96
2019-01-19T07:10:19.751Z,-3.07
2019-01-19T07:12:48.898Z,-3.00
2019-01-19T07:15:18.106Z,-3.03
2019-01-19T07:17:47.242Z,-3.00
2019-01-19T07:20:21.948Z,-3.02
2019-01-19T07:22:51.114Z,-3.09
2019-01-19T07:25:20.216Z,-2.95
2019-01-19T07:27:49.317Z,-2.86
2019-01-19T07:30:18.400Z,-2.87
2019-01-19T07:32:47.613Z,-2.83
2019-01-19T07:35:35.173Z,-2.83
2019-01-19T07:38:04.364Z,-2.82
2019-01-19T07:40:33.492Z,-2.61
2019-01-19T07:43:07.589Z,-2.42
2019-01-19T07:45:36.792Z,-2.37
2019-01-19T07:48:06.954Z,-2.44
2019-01-19T07:50:37.842Z,-2.40
2019-01-19T07:53:07.223Z,-2.39
2019-01-19T07:55:36.436Z,-2.28
2019-01-19T07:58:05.547Z,-2.31
2019-01-19T08:00:34.696Z,-2.13
2019-01-19T08:03:03.885Z,-2.11
2019-01-19T08:05:33.001Z,-2.10
2019-01-19T08:08:02.230Z,-2.05
2019-01-19T08:10:55.175Z,-1.95
2019-01-19T08:13:39.562Z,-1.74
2019-01-19T08:16:00.959Z,-1.79
2019-01-19T08:18:30.120Z,-1.63
2019-01-19T08:21:02.108Z,-1.34
2019-01-19T08:23:31.288Z,-1.24
2019-01-19T08:26:00.485Z,-1.04
2019-01-19T08:28:38.144Z,-0.95
2019-01-19T08:31:13.780Z,-0.85
2019-01-19T08:33:43.011Z,-0.81
2019-01-19T08:36:14.102Z,-0.69
2019-01-19T08:38:43.269Z,-0.57
2019-01-19T08:41:12.511Z,-0.55
2019-01-19T08:43:56.300Z,-0.44
2019-01-19T08:46:32.431Z,-0.36
2019-01-19T08:49:01.574Z,-0.39
2019-01-19T08:51:31.054Z,-0.23
2019-01-19T08:54:00.106Z,-0.22
2019-01-19T08:56:29.308Z,-0.18
2019-01-19T08:58:59.306Z,-0.12
2019-01-19T09:01:28.410Z,-0.07
2019-01-19T09:03:57.605Z,-0.03
2019-01-19T09:06:26.909Z,0.06
2019-01-19T09:08:56.130Z,0.11
2019-01-19T09:11:25.329Z,0.10
2019-01-19T09:13:56.034Z,0.14
2019-01-19T09:16:25.200Z,0.18
2019-01-19T09:18:54.562Z,0.20
2019-01-19T09:21:23.751Z,0.28
2019-01-19T09:24:03.712Z,0.30
2019-01-19T09:26:34.821Z,0.37
2019-01-19T09:29:04.042Z,0.46
2019-01-19T09:31:36.028Z,0.50
2019-01-19T09:34:05.439Z,0.55
2019-01-19T09:36:36.202Z,0.63
2019-01-19T09:39:09.532Z,0.75
2019-01-19T09:41:39.897Z,0.83
2019-01-19T09:44:09.094Z,0.79
2019-01-19T09:46:39.700Z,0.81
2019-01-19T09:49:24.992Z,0.82
2019-01-19T09:51:51.638Z,0.78
2019-01-19T09:54:22.069Z,0.85
2019-01-19T09:56:51.350Z,0.84
2019-01-19T09:59:21.987Z,0.84
2019-01-19T10:01:51.214Z,0.83
2019-01-19T10:04:22.331Z,0.90
2019-01-19T10:06:55.783Z,1.02
2019-01-19T10:09:26.586Z,1.01
2019-01-19T10:12:00.570Z,1.08
2019-01-19T10:14:26.887Z,1.19
2019-01-19T10:16:56.187Z,1.20
2019-01-19T10:19:25.340Z,1.13
2019-01-19T10:21:54.452Z,1.18
2019-01-19T10:24:23.569Z,1.31
2019-01-19T10:26:52.672Z,1.39
2019-01-19T10:29:22.202Z,1.54
2019-01-19T10:31:51.366Z,1.61
2019-01-19T10:34:20.470Z,1.65
2019-01-19T10:36:49.618Z,1.89
2019-01-19T10:39:18.714Z,1.88
2019-01-19T10:41:47.868Z,1.95
2019-01-19T10:44:17.125Z,1.91
2019-01-19T10:46:46.257Z,1.80
2019-01-19T10:49:15.442Z,1.91
2019-01-19T10:51:44.633Z,1.89
2019-01-19T10:54:13.748Z,2.03
2019-01-19T10:56:42.878Z,1.95
2019-01-19T10:59:12.007Z,2.06
2019-01-19T11:01:41.134Z,2.14
2019-01-19T11:04:11.892Z,2.13
2019-01-19T11:06:40.982Z,2.18
2019-01-19T11:09:10.055Z,2.27
2019-01-19T11:11:39.284Z,2.45
2019-01-19T11:14:08.347Z,2.48
2019-01-19T11:16:37.642Z,2.46
2019-01-19T11:19:06.963Z,2.55
2019-01-19T11:21:36.098Z,2.48
2019-01-19T11:24:05.228Z,2.56
2019-01-19T11:26:34.355Z,2.52
2019-01-19T11:29:03.502Z,2.61
2019-01-19T11:31:32.632Z,2.68
2019-01-19T11:34:02.935Z,2.91
2019-01-19T11:36:32.207Z,2.86
2019-01-19T11:39:01.321Z,2.85
2019-01-19T11:41:30.433Z,2.92
2019-01-19T11:43:59.559Z,2.91
2019-01-19T11:46:28.647Z,3.01
2019-01-19T11:48:57.782Z,3.08
2019-01-19T11:51:26.896Z,3.18
2019-01-19T11:53:56.037Z,3.31
2019-01-19T11:56:25.129Z,3.35
2019-01-19T11:58:54.307Z,3.48
2019-01-19T12:01:23.433Z,3.62
2019-01-19T12:03:52.594Z,3.92
2019-01-19T12:06:21.850Z,4.06
2019-01-19T12:08:50.980Z,4.13
2019-01-19T12:11:20.071Z,4.21
2019-01-19T12:13:49.231Z,4.22
2019-01-19T12:16:18.460Z,4.14
2019-01-19T12:18:47.561Z,4.26
2019-01-19T12:21:16.696Z,4.31
2019-01-19T12:23:45.844Z,4.48
2019-01-19T12:26:14.956Z,4.53
2019-01-19T12:28:44.045Z,4.57
2019-01-19T12:31:13.225Z,4.54
2019-01-19T12:33:42.437Z,4.44
2019-01-19T12:36:11.618Z,4.60
2019-01-19T12:38:40.812Z,4.51
2019-01-19T12:41:09.921Z,4.58
2019-01-19T12:43:39.061Z,4.61
2019-01-19T12:46:10.262Z,4.59
2019-01-19T12:48:39.456Z,4.64
2019-01-19T12:51:11.952Z,4.60
2019-01-19T12:53:41.070Z,4.84
2019-01-19T12:56:10.194Z,4.68
2019-01-19T12:58:39.408Z,4.74
2019-01-19T13:01:08.533Z,4.88
2019-01-19T13:03:38.029Z,4.99
2019-01-19T13:06:24.818Z,5.09
2019-01-19T13:08:53.978Z,5.16
2019-01-19T13:11:55.687Z,5.38
2019-01-19T13:14:25.054Z,5.36
2019-01-19T13:17:23.106Z,5.44
2019-01-19T13:20:12.490Z,5.32
2019-01-19T13:23:16.218Z,5.49
2019-01-19T13:26:29.290Z,5.62
2019-01-19T13:29:43.076Z,5.59
2019-01-19T13:32:41.339Z,5.67
2019-01-19T13:35:57.562Z,5.58
2019-01-19T13:39:10.160Z,5.63
2019-01-19T13:42:09.819Z,5.39
2019-01-19T13:45:11.654Z,5.44
2019-01-19T13:48:23.732Z,5.43
2019-01-19T13:51:28.905Z,5.51
2019-01-19T13:54:39.062Z,5.52
2019-01-19T13:57:29.605Z,5.42
2019-01-19T14:00:43.162Z,5.38
2019-01-19T14:03:49.990Z,5.43
2019-01-19T14:07:08.282Z,5.38
2019-01-19T14:09:56.631Z,5.41
2019-01-19T14:13:01.970Z,5.35
2019-01-19T14:15:46.598Z,5.29
2019-01-19T14:19:11.869Z,5.08
2019-01-19T14:33:24.552Z,4.43
2019-01-19T14:36:23.913Z,4.33
2019-01-19T14:39:37.776Z,4.24
2019-01-19T14:42:58.030Z,4.03
2019-01-19T14:45:56.322Z,4.00
2019-01-19T14:48:57.842Z,3.65
2019-01-19T14:52:07.353Z,3.68
2019-01-19T14:55:17.650Z,3.67
2019-01-19T14:58:26.969Z,3.61
2019-01-19T15:01:01.620Z,3.43
2019-01-19T15:03:57.339Z,3.38
2019-01-19T15:06:58.277Z,3.35
2019-01-19T15:10:01.230Z,3.35
2019-01-19T15:13:09.442Z,3.27
2019-01-19T15:16:19.687Z,3.33
2019-01-19T15:19:12.603Z,3.08
2019-01-19T15:22:24.770Z,3.04
2019-01-19T15:25:33.851Z,3.01
2019-01-19T15:28:43.762Z,2.90
2019-01-19T15:32:00.125Z,2.68
2019-01-19T15:35:01.185Z,2.72
2019-01-19T15:37:48.253Z,2.59
2019-01-19T15:40:54.046Z,2.72
2019-01-19T15:44:01.937Z,2.77
2019-01-19T15:47:18.241Z,2.80
2019-01-19T15:50:31.859Z,2.59
2019-01-19T15:53:38.136Z,2.45
2019-01-19T15:56:38.398Z,2.49
2019-01-19T15:59:29.885Z,2.36
2019-01-19T16:02:28.335Z,2.21
2019-01-19T16:05:39.155Z,2.09
2019-01-19T16:09:10.725Z,2.04
2019-01-19T16:12:17.251Z,1.89
2019-01-19T16:15:33.846Z,1.66
2019-01-19T16:18:43.341Z,1.74
2019-01-19T16:21:43.533Z,1.58
2019-01-19T16:24:41.259Z,1.74
2019-01-19T16:28:05.595Z,1.73
2019-01-19T16:31:11.344Z,1.61
2019-01-19T16:34:08.473Z,1.45
2019-01-19T16:37:09.007Z,1.47
2019-01-19T16:40:08.358Z,1.43
2019-01-19T16:43:10.649Z,1.37
2019-01-19T16:45:58.248Z,1.27
2019-01-19T16:49:04.120Z,1.12
2019-01-19T16:52:15.362Z,1.09
2019-01-19T17:25:15.997Z,0.78
2019-01-19T17:28:28.109Z,0.65
2019-01-19T17:31:56.551Z,0.71
2019-01-19T17:34:58.833Z,0.62
2019-01-19T17:37:53.109Z,0.70
2019-01-19T17:41:12.590Z,0.50
2019-01-19T17:44:12.554Z,0.48
2019-01-19T17:47:14.937Z,0.45
2019-01-19T17:50:06.154Z,0.43
2019-01-19T17:53:01.724Z,0.46
2019-01-19T17:56:07.420Z,0.47
2019-01-19T17:59:00.433Z,0.41
2019-01-19T18:02:09.248Z,0.42
2019-01-19T18:05:03.012Z,0.34
2019-01-19T18:08:13.286Z,0.23
2019-01-19T18:11:39.129Z,0.16
2019-01-19T18:14:44.547Z,0.30
2019-01-19T18:17:39.367Z,0.27
2019-01-19T18:21:01.747Z,0.19
2019-01-19T18:23:59.617Z,0.21
2019-01-19T18:26:55.310Z,0.18
2019-01-19T18:30:05.643Z,0.07
2019-01-19T18:33:18.533Z,0.10
2019-01-19T18:36:40.842Z,0.11
2019-01-19T18:39:42.848Z,0.02
2019-01-19T18:43:08.344Z,-0.06
2019-01-19T18:46:24.277Z,-0.03
2019-01-19T18:49:42.413Z,-0.11
2019-01-19T18:52:56.013Z,-0.13
2019-01-19T19:11:29.699Z,-0.35
2019-01-19T19:19:16.926Z,-0.29
2019-01-19T19:22:24.796Z,-0.33
2019-01-19T19:25:51.134Z,-0.41
2019-01-19T19:28:51.341Z,-0.39
2019-01-19T19:32:09.765Z,-0.29
2019-01-19T19:35:24.360Z,-0.23
2019-01-19T19:38:35.980Z,-0.35
2019-01-19T19:42:04.794Z,-0.14
2019-01-19T19:45:14.581Z,-0.37
2019-01-19T19:48:27.116Z,-0.35
2019-01-19T19:51:29.802Z,-0.50
2019-01-19T19:53:59.072Z,-0.47
2019-01-19T19:56:26.806Z,-0.48
2019-01-19T19:58:56.084Z,-0.50
2019-01-19T20:01:25.380Z,-0.48
2019-01-19T20:03:54.590Z,-0.36
2019-01-19T20:06:24.097Z,-0.45
2019-01-19T20:08:53.247Z,-0.54
2019-01-19T20:11:23.711Z,-0.54
2019-01-19T20:13:52.868Z,-0.56
2019-01-19T20:16:22.040Z,-0.61
2019-01-19T20:18:53.079Z,-0.53
2019-01-19T20:21:22.222Z,-0.55
2019-01-19T20:23:51.401Z,-0.49
2019-01-19T20:26:20.967Z,-0.61
2019-01-19T20:28:50.250Z,-0.58
2019-01-19T20:31:19.533Z,-0.74
2019-01-19T20:33:48.777Z,-0.65
2019-01-19T20:36:18.172Z,-0.71
2019-01-19T20:38:47.365Z,-0.79
2019-01-19T20:41:16.845Z,-0.77
2019-01-19T20:43:46.077Z,-0.67
2019-01-19T20:46:16.968Z,-0.71
2019-01-19T20:48:46.408Z,-0.79
2019-01-19T20:51:15.580Z,-0.69
2019-01-19T20:53:50.233Z,-0.85
2019-01-19T20:56:19.448Z,-1.00
2019-01-19T20:58:48.800Z,-1.00
2019-01-19T21:01:18.015Z,-0.87
2019-01-19T21:03:47.326Z,-0.97
2019-01-19T21:06:16.514Z,-1.08
2019-01-19T21:08:45.835Z,-1.06
2019-01-19T21:11:15.239Z,-0.95
2019-01-19T21:13:48.563Z,-0.97
2019-01-19T21:16:17.739Z,-1.14
2019-01-19T21:18:48.584Z,-1.18
2019-01-19T21:21:17.789Z,-1.24
2019-01-19T21:23:49.277Z,-1.30
2019-01-19T21:26:18.664Z,-1.25
2019-01-19T21:28:51.185Z,-1.31
2019-01-19T21:31:20.458Z,-1.24
2019-01-19T21:33:49.644Z,-1.14
2019-01-19T21:36:18.894Z,-1.26
2019-01-19T21:38:48.130Z,-1.30
2019-01-19T21:41:25.983Z,-1.11
2019-01-19T21:43:54.010Z,-1.21
2019-01-19T21:46:21.918Z,-1.14
2019-01-19T21:48:51.226Z,-1.10
2019-01-19T21:51:21.639Z,-1.13
2019-01-19T21:53:50.895Z,-1.13
2019-01-19T21:56:20.028Z,-1.07
2019-01-19T21:58:49.297Z,-1.16
2019-01-19T22:01:18.588Z,-1.06
2019-01-19T22:03:47.813Z,-1.21
2019-01-19T22:06:17.165Z,-1.36
2019-01-19T22:08:46.245Z,-1.39
2019-01-19T22:11:15.403Z,-1.47
2019-01-19T22:13:47.284Z,-1.51
2019-01-19T22:16:15.575Z,-1.51
2019-01-19T22:18:44.678Z,-1.50
2019-01-19T22:21:13.867Z,-1.51
2019-01-19T22:23:43.095Z,-1.50
2019-01-19T22:26:14.136Z,-1.53
2019-01-19T22:28:43.330Z,-1.49
2019-01-19T22:31:13.134Z,-1.70
2019-01-19T22:33:42.329Z,-1.69
2019-01-19T22:36:11.443Z,-1.69
2019-01-19T22:38:40.620Z,-1.70
2019-01-19T22:41:09.791Z,-1.62
2019-01-19T22:43:41.469Z,-1.72
2019-01-19T22:46:10.575Z,-1.78
2019-01-19T22:48:39.911Z,-1.79
2019-01-19T22:51:11.397Z,-1.82
2019-01-19T22:53:40.175Z,-1.86
2019-01-19T22:56:09.234Z,-1.75
2019-01-19T22:58:38.428Z,-1.85
2019-01-19T23:01:34.647Z,-1.80
2019-01-19T23:04:04.118Z,-1.85
2019-01-19T23:06:33.209Z,-1.92
2019-01-19T23:09:02.338Z,-1.94
2019-01-19T23:11:33.960Z,-1.99
2019-01-19T23:14:02.662Z,-1.94
2019-01-19T23:16:31.815Z,-2.05
2019-01-19T23:19:00.956Z,-1.91
2019-01-19T23:21:30.086Z,-2.00
2019-01-19T23:23:59.358Z,-2.11
2019-01-19T23:26:28.965Z,-2.17
2019-01-19T23:28:58.019Z,-2.14
2019-01-19T23:31:27.176Z,-2.34
2019-01-19T23:33:56.299Z,-2.33
2019-01-19T23:36:25.492Z,-2.47
2019-01-19T23:38:54.719Z,-2.49
2019-01-19T23:41:23.895Z,-2.38
2019-01-19T23:43:54.139Z,-2.47
2019-01-19T23:46:23.291Z,-2.49
2019-01-19T23:48:52.483Z,-2.53
2019-01-19T23:51:22.395Z,-2.56
2019-01-19T23:53:51.764Z,-2.61
2019-01-19T23:56:20.991Z,-2.36
2019-01-19T23:58:50.153Z,-2.52
